CheckWX is a tool to help pilots better visualize weather data.  It is not intended as a substitute for an official pre-flight weather briefing.

22:27:37 UTC

KMCC TAF
Mc Clellan Airfield Airport
Sacramento, California, USA
KMCC 161731Z 1618/1718 VRB05KT P6SM SKC FM162100 20005KT P6SM BKN200 FM170500 15005KT P6SM OVC200 TEMPO 1709/1712 P6SM -SHRA BKN050 FM171200 14004KT P6SM SCT050 BKN250

Oct-16@
18:00 UTC

Oct-16 @ 18:00 UTC

Oct-16@
21:00 UTC

Oct-16 @ 21:00 UTC

KMCC 161731Z 1618/1718 VRB05KT P6SM SKC

Expired

Wind
  • Variable at 5 KTS
Cloud Levels
  • Clear skies

Oct-16@
21:00 UTC

Oct-16 @ 21:00 UTC

Oct-17@
05:00 UTC

Oct-17 @ 05:00 UTC

FM162100 20005KT P6SM BKN200

From

From Standard forecast or significant change

Wind
  • 200° at 5 KTS
Cloud Levels
  • Broken at 20,000' AGL

Oct-17@
05:00 UTC

Oct-17 @ 05:00 UTC

Oct-17@
12:00 UTC

Oct-17 @ 12:00 UTC

FM170500 15005KT P6SM OVC200

From

From Standard forecast or significant change

Wind
  • 150° at 5 KTS
Cloud Levels
  • Overcast at 20,000' AGL

Oct-17@
09:00 UTC

Oct-17 @ 09:00 UTC

Oct-17@
12:00 UTC

Oct-17 @ 12:00 UTC

TEMPO 1709/1712 P6SM -SHRA BKN050

Temporary

Temporary Changes expected for less than half the time period

Conditions
Light Rain
Cloud Levels
  • Broken at 5,000' AGL

Oct-17@
12:00 UTC

Oct-17 @ 12:00 UTC

Oct-17@
18:00 UTC

Oct-17 @ 18:00 UTC

FM171200 14004KT P6SM SCT050 BKN250

From

From Standard forecast or significant change

Wind
  • 140° at 4 KTS
Cloud Levels
  • Scattered at 5,000' AGL
  • Broken at 25,000' AGL